Time;durP1;ratioP1;P1;durP2;ratioP2;P2;SDS_P1;SDS_P2;PMS_P1;PMS_P2;Temp;Humidity;BMP_temperature;BMP_pressure;BME280_temperature;BME280_humidity;BME280_pressure;Samples;Min_cycle;Max_cycle;Signal;HPM_P1;HPM_P2
2022/11/26 00:00:36;;;;;;;20.07;9.40;;;8.60;99.90;;;;;;5094152;28;20446;-61
2022/11/26 00:03:04;;;;;;;18.87;8.37;;;8.60;99.90;;;;;;5093704;28;20446;-61
2022/11/26 00:05:32;;;;;;;17.03;8.60;;;8.60;99.90;;;;;;5083874;28;20482;-61
2022/11/26 00:08:00;;;;;;;21.60;9.87;;;8.70;99.90;;;;;;5091692;28;20435;-61
2022/11/26 00:10:37;;;;;;;16.20;9.67;;;8.70;99.90;;;;;;5093990;28;20504;-62
2022/11/26 00:13:17;;;;;;;22.43;9.97;;;8.70;99.90;;;;;;5094413;28;20434;-62
2022/11/26 00:15:44;;;;;;;19.73;8.70;;;8.60;99.90;;;;;;5093832;28;20469;-58
2022/11/26 00:18:13;;;;;;;21.60;10.17;;;8.60;99.90;;;;;;5087388;28;20443;-61
2022/11/26 00:20:42;;;;;;;12.30;9.00;;;8.60;99.90;;;;;;5087196;28;20450;-63
2022/11/26 00:23:19;;;;;;;17.93;10.10;;;8.70;99.90;;;;;;5081088;28;20474;-62
2022/11/26 00:25:48;;;;;;;20.53;10.50;;;8.70;99.90;;;;;;5093475;28;20524;-58
2022/11/26 00:28:27;;;;;;;20.67;8.83;;;8.70;99.90;;;;;;5093502;28;20469;-59
2022/11/26 00:30:56;;;;;;;21.13;9.20;;;8.70;99.90;;;;;;5093540;28;20430;-62
2022/11/26 00:33:25;;;;;;;17.83;9.00;;;8.70;99.90;;;;;;5093497;28;20477;-58
2022/11/26 00:35:56;;;;;;;20.03;10.00;;;8.70;99.90;;;;;;5093956;28;20433;-57
2022/11/26 00:38:23;;;;;;;18.87;8.67;;;8.70;99.90;;;;;;5094717;28;20438;-57
2022/11/26 00:40:50;;;;;;;15.60;8.90;;;8.70;99.90;;;;;;5092789;28;20473;-60
2022/11/26 00:43:18;;;;;;;17.00;7.87;;;8.70;99.90;;;;;;5092890;28;20446;-61
2022/11/26 00:45:46;;;;;;;16.80;8.30;;;8.60;99.90;;;;;;5096786;28;20502;-58
2022/11/26 00:48:15;;;;;;;20.70;10.67;;;8.60;99.90;;;;;;5097457;28;20461;-60
2022/11/26 00:50:47;;;;;;;14.57;9.50;;;8.60;99.90;;;;;;5097248;28;20451;-61
2022/11/26 00:53:17;;;;;;;22.60;10.27;;;8.60;99.90;;;;;;5096825;28;20446;-61
2022/11/26 00:55:46;;;;;;;15.63;9.37;;;8.60;99.90;;;;;;5096903;28;20450;-62
2022/11/26 00:58:22;;;;;;;22.33;9.97;;;8.60;99.90;;;;;;5085995;28;20442;-61
2022/11/26 01:00:49;;;;;;;22.20;11.27;;;8.60;99.90;;;;;;5097249;28;20410;-58
2022/11/26 01:03:16;;;;;;;15.20;8.93;;;8.60;99.90;;;;;;5097230;28;20468;-60
2022/11/26 01:05:48;;;;;;;23.07;8.73;;;8.60;99.90;;;;;;5096874;28;20486;-60
2022/11/26 01:08:20;;;;;;;24.60;10.20;;;8.60;99.90;;;;;;5090025;28;20427;-62
2022/11/26 01:10:47;;;;;;;15.67;8.53;;;8.60;99.90;;;;;;5097843;28;20462;-64
2022/11/26 01:13:14;;;;;;;18.47;9.50;;;8.60;99.90;;;;;;5098024;28;20426;-67
2022/11/26 01:15:41;;;;;;;14.63;9.00;;;8.60;99.90;;;;;;5098110;28;20457;-60
2022/11/26 01:18:15;;;;;;;27.77;12.00;;;8.60;99.90;;;;;;5098151;28;20442;-62
2022/11/26 01:20:42;;;;;;;16.97;10.40;;;8.60;99.90;;;;;;5097317;28;20438;-64
2022/11/26 01:23:12;;;;;;;20.93;9.83;;;8.60;99.90;;;;;;5085030;28;20454;-61
2022/11/26 01:25:39;;;;;;;19.50;8.80;;;8.60;99.90;;;;;;5096645;28;20482;-61
2022/11/26 01:28:10;;;;;;;24.70;10.67;;;8.60;99.90;;;;;;5096035;28;20505;-58
2022/11/26 01:30:36;;;;;;;17.43;9.40;;;8.60;99.90;;;;;;5096335;28;20453;-60
2022/11/26 01:33:03;;;;;;;20.50;10.20;;;8.60;99.90;;;;;;5085869;28;20450;-62
2022/11/26 01:35:33;;;;;;;24.57;10.83;;;8.60;99.90;;;;;;5096647;28;20490;-59
2022/11/26 01:38:00;;;;;;;16.17;9.30;;;8.60;99.90;;;;;;5096211;28;20438;-61
2022/11/26 01:40:49;;;;;;;25.43;12.20;;;8.60;99.90;;;;;;5084589;28;20465;-61
2022/11/26 01:43:23;;;;;;;27.60;11.27;;;8.60;99.90;;;;;;5096023;28;20418;-62
2022/11/26 01:45:49;;;;;;;18.33;9.30;;;8.60;99.90;;;;;;5096164;28;20462;-54
2022/11/26 01:48:26;;;;;;;22.20;10.37;;;8.60;99.90;;;;;;5088408;28;20504;-63
2022/11/26 01:50:57;;;;;;;26.13;10.27;;;8.60;99.90;;;;;;5094465;28;20442;-55
2022/11/26 01:53:42;;;;;;;22.33;10.60;;;8.60;99.90;;;;;;5096579;28;20474;-58
2022/11/26 01:56:18;;;;;;;22.37;10.07;;;8.60;99.90;;;;;;5095798;28;20435;-59
2022/11/26 01:58:48;;;;;;;27.50;11.17;;;8.60;99.90;;;;;;5096424;28;20446;-62
2022/11/26 02:01:16;;;;;;;18.53;9.03;;;8.60;99.90;;;;;;5095734;28;20494;-57
2022/11/26 02:03:54;;;;;;;22.67;11.80;;;8.60;99.90;;;;;;5096048;28;20453;-57
2022/11/26 02:06:25;;;;;;;29.67;8.77;;;8.60;99.90;;;;;;5095739;28;20478;-53
2022/11/26 02:08:53;;;;;;;37.07;10.90;;;8.60;99.90;;;;;;5088134;28;20498;-58
2022/11/26 02:11:26;;;;;;;17.30;8.60;;;8.60;99.90;;;;;;5095098;28;20446;-61
2022/11/26 02:13:55;;;;;;;22.67;9.30;;;8.60;99.90;;;;;;5095734;28;20772;-65
2022/11/26 02:16:36;;;;;;;16.87;7.70;;;8.60;99.90;;;;;;5095279;28;20457;-61
2022/11/26 02:19:43;;;;;;;22.13;10.43;;;8.60;99.90;;;;;;5095904;28;20450;-60
2022/11/26 02:22:21;;;;;;;23.87;9.90;;;8.60;99.90;;;;;;5033471;28;20444;-56
2022/11/26 02:24:50;;;;;;;32.20;11.73;;;8.60;99.90;;;;;;5085705;28;20498;-58
2022/11/26 02:27:56;;;;;;;26.10;11.40;;;8.70;99.90;;;;;;5095450;28;20568;-59
2022/11/26 02:30:24;;;;;;;29.40;11.03;;;8.70;99.90;;;;;;5078839;28;20489;-59
2022/11/26 02:33:02;;;;;;;22.37;9.47;;;8.70;99.90;;;;;;5095151;28;20476;-62
2022/11/26 02:35:36;;;;;;;22.07;10.17;;;8.70;99.90;;;;;;5095163;28;20882;-58
2022/11/26 02:38:07;;;;;;;18.83;10.40;;;8.70;99.90;;;;;;5094904;28;20444;-62
2022/11/26 02:40:36;;;;;;;19.90;9.40;;;8.60;99.90;;;;;;5094689;28;20449;-60
2022/11/26 02:43:03;;;;;;;22.43;10.00;;;8.60;99.90;;;;;;5095118;28;20470;-56
2022/11/26 02:45:35;;;;;;;28.20;9.80;;;8.50;99.90;;;;;;5095225;28;20481;-58
2022/11/26 02:48:04;;;;;;;25.07;10.20;;;8.50;99.90;;;;;;5095664;28;20471;-60
2022/11/26 02:50:36;;;;;;;22.27;9.83;;;8.50;99.90;;;;;;5095211;28;20454;-61
2022/11/26 02:53:05;;;;;;;15.97;8.53;;;8.60;99.90;;;;;;5095817;28;20418;-57
2022/11/26 02:55:35;;;;;;;22.20;9.60;;;8.60;99.90;;;;;;5095619;28;20462;-60
2022/11/26 02:58:02;;;;;;;38.50;14.37;;;8.60;99.90;;;;;;5096275;28;20438;-64
2022/11/26 03:00:35;;;;;;;25.80;10.20;;;8.60;99.90;;;;;;5096506;28;20473;-61
2022/11/26 03:03:08;;;;;;;23.00;10.87;;;8.50;99.90;;;;;;5095789;28;20450;-63
2022/11/26 03:05:38;;;;;;;35.60;12.30;;;8.50;99.90;;;;;;5095304;28;20418;-56
2022/11/26 03:08:06;;;;;;;23.30;13.40;;;8.50;99.90;;;;;;5093885;28;20446;-54
2022/11/26 03:10:34;;;;;;;22.27;13.07;;;8.50;99.90;;;;;;5083914;28;20462;-63
2022/11/26 03:13:00;;;;;;;30.63;13.93;;;8.50;99.90;;;;;;5092860;28;20466;-60
2022/11/26 03:15:29;;;;;;;26.23;12.70;;;8.50;99.90;;;;;;5094022;28;20446;-62
2022/11/26 03:17:58;;;;;;;31.40;12.17;;;8.60;99.90;;;;;;5083800;28;20466;-62
2022/11/26 03:20:25;;;;;;;27.70;11.30;;;8.60;99.90;;;;;;5093836;28;20446;-58
2022/11/26 03:22:53;;;;;;;30.33;13.10;;;8.60;99.90;;;;;;5093964;28;20455;-61
2022/11/26 03:25:20;;;;;;;26.30;13.57;;;8.60;99.90;;;;;;5093814;28;20476;-57
2022/11/26 03:27:49;;;;;;;22.63;10.57;;;8.60;99.90;;;;;;5094242;28;20442;-53
2022/11/26 03:30:16;;;;;;;26.40;12.77;;;8.50;99.90;;;;;;5094422;28;20496;-63
2022/11/26 03:32:43;;;;;;;33.30;14.30;;;8.60;99.90;;;;;;5095057;28;20442;-61
2022/11/26 03:35:11;;;;;;;26.40;11.33;;;8.60;99.90;;;;;;5094497;28;20449;-56
2022/11/26 03:37:38;;;;;;;34.73;12.90;;;8.60;99.90;;;;;;5093741;28;20486;-61
2022/11/26 03:40:07;;;;;;;29.37;12.50;;;8.60;99.90;;;;;;5093943;28;20472;-60
2022/11/26 03:42:34;;;;;;;40.03;14.97;;;8.60;99.90;;;;;;5094201;28;20439;-59
2022/11/26 03:45:01;;;;;;;38.10;13.07;;;8.60;99.90;;;;;;5094396;28;20937;-59
2022/11/26 03:47:28;;;;;;;28.20;11.70;;;8.60;99.90;;;;;;5093990;28;20504;-58
2022/11/26 03:49:55;;;;;;;31.07;12.20;;;8.70;99.90;;;;;;5093509;28;20470;-55
2022/11/26 03:52:23;;;;;;;40.10;12.57;;;8.70;99.90;;;;;;5093717;28;20438;-52
2022/11/26 03:54:50;;;;;;;34.90;15.77;;;8.70;99.90;;;;;;5093642;28;20480;-58
2022/11/26 03:57:17;;;;;;;25.57;12.13;;;8.70;99.90;;;;;;5093540;28;20655;-59
2022/11/26 03:59:44;;;;;;;43.70;12.47;;;8.70;99.90;;;;;;5084429;28;20922;-63
2022/11/26 04:02:11;;;;;;;46.53;14.63;;;8.80;99.90;;;;;;5087647;28;20532;-62
2022/11/26 04:04:38;;;;;;;32.00;14.90;;;8.80;99.90;;;;;;5086893;28;20446;-61
2022/11/26 04:07:05;;;;;;;42.87;13.60;;;8.80;99.90;;;;;;5093197;28;20502;-60
2022/11/26 04:09:33;;;;;;;39.90;13.50;;;8.70;99.90;;;;;;5089476;28;20442;-63
2022/11/26 04:12:00;;;;;;;28.30;14.37;;;8.70;99.90;;;;;;5088196;28;20476;-62
2022/11/26 04:14:29;;;;;;;31.27;15.00;;;8.70;99.90;;;;;;5093886;28;20481;-61
2022/11/26 04:16:56;;;;;;;33.40;14.90;;;8.70;99.90;;;;;;5093814;28;20425;-59
2022/11/26 04:19:25;;;;;;;31.17;14.33;;;8.70;99.90;;;;;;5093364;28;20447;-55
2022/11/26 04:21:51;;;;;;;32.90;13.60;;;8.70;99.90;;;;;;5085264;28;20447;-56
2022/11/26 04:24:19;;;;;;;35.10;14.07;;;8.80;99.90;;;;;;5092908;28;20450;-61
2022/11/26 04:26:47;;;;;;;34.77;14.60;;;8.80;99.90;;;;;;5093093;28;20508;-61
2022/11/26 04:29:14;;;;;;;27.40;12.40;;;8.80;99.90;;;;;;5093800;28;20434;-58
2022/11/26 04:31:41;;;;;;;29.43;13.83;;;8.80;99.90;;;;;;5093023;28;20489;-54
2022/11/26 04:34:08;;;;;;;33.23;12.80;;;8.80;99.90;;;;;;5093311;28;20454;-65
2022/11/26 04:36:34;;;;;;;28.33;12.63;;;8.90;99.90;;;;;;5094201;28;20727;-63
2022/11/26 04:39:01;;;;;;;26.00;11.87;;;8.80;99.90;;;;;;5093943;28;20471;-60
2022/11/26 04:41:31;;;;;;;32.43;12.60;;;8.80;99.90;;;;;;5094378;28;20453;-60
2022/11/26 04:43:59;;;;;;;28.40;12.50;;;8.80;99.90;;;;;;5091778;28;20497;-63
2022/11/26 04:46:26;;;;;;;32.70;14.07;;;8.80;99.90;;;;;;5084618;28;20534;-61
2022/11/26 04:48:53;;;;;;;40.07;13.50;;;8.80;99.90;;;;;;5094221;28;20442;-60
2022/11/26 04:51:20;;;;;;;32.77;12.63;;;8.80;99.90;;;;;;5091737;28;20434;-65
2022/11/26 04:53:50;;;;;;;23.17;12.07;;;8.80;99.90;;;;;;5084915;28;20473;-58
2022/11/26 04:56:16;;;;;;;32.23;14.17;;;8.80;99.90;;;;;;5089845;28;20481;-54
2022/11/26 04:58:43;;;;;;;26.37;12.10;;;8.80;99.90;;;;;;5094227;28;20454;-61
2022/11/26 05:01:12;;;;;;;32.90;14.70;;;8.80;99.90;;;;;;5094054;28;20446;-56
2022/11/26 05:03:38;;;;;;;23.67;11.80;;;8.70;99.90;;;;;;5092561;28;20490;-58
2022/11/26 05:06:06;;;;;;;29.63;11.80;;;8.70;99.90;;;;;;5093115;28;20525;-60
2022/11/26 05:08:33;;;;;;;29.53;12.20;;;8.70;99.90;;;;;;5092654;28;20469;-59
2022/11/26 05:11:02;;;;;;;26.37;11.60;;;8.70;99.90;;;;;;5093092;28;20422;-62
2022/11/26 05:13:29;;;;;;;31.77;12.37;;;8.80;99.90;;;;;;5092494;28;20434;-62
2022/11/26 05:15:56;;;;;;;27.27;11.53;;;8.80;99.90;;;;;;5093005;28;20454;-57
2022/11/26 05:18:26;;;;;;;20.03;12.33;;;8.80;99.90;;;;;;5092828;28;20461;-59
2022/11/26 05:20:53;;;;;;;28.23;10.80;;;8.80;99.90;;;;;;5092745;28;20470;-57
2022/11/26 05:23:23;;;;;;;23.50;13.40;;;8.80;99.90;;;;;;5092982;28;20465;-57
2022/11/26 05:25:50;;;;;;;21.90;11.57;;;8.80;99.90;;;;;;5091278;28;20443;-62
2022/11/26 05:28:17;;;;;;;24.93;11.33;;;8.80;99.90;;;;;;5082494;28;20501;-59
2022/11/26 05:30:44;;;;;;;19.80;10.60;;;8.80;99.90;;;;;;5093373;28;20453;-61
2022/11/26 05:33:11;;;;;;;18.43;11.40;;;8.80;99.90;;;;;;5096884;28;20461;-57
2022/11/26 05:35:40;;;;;;;22.10;12.43;;;8.80;99.90;;;;;;5095892;28;20746;-60
2022/11/26 05:38:07;;;;;;;26.57;12.27;;;8.70;99.90;;;;;;5095690;28;20434;-59
2022/11/26 05:40:34;;;;;;;30.53;11.33;;;8.70;99.90;;;;;;5096369;28;20445;-57
2022/11/26 05:43:01;;;;;;;21.63;10.13;;;8.70;99.90;;;;;;5096132;28;20454;-60
2022/11/26 05:45:28;;;;;;;23.97;9.60;;;8.80;99.90;;;;;;5096103;28;20446;-61
2022/11/26 05:47:57;;;;;;;26.33;9.87;;;8.80;99.90;;;;;;5095307;28;20509;-59
2022/11/26 05:50:24;;;;;;;18.53;9.17;;;8.70;99.90;;;;;;5096018;28;20438;-60
2022/11/26 05:52:53;;;;;;;24.77;9.13;;;8.80;99.90;;;;;;5096192;28;20472;-60
2022/11/26 05:55:20;;;;;;;29.30;10.97;;;8.80;99.90;;;;;;5096369;28;20470;-57
2022/11/26 05:57:50;;;;;;;14.70;9.87;;;8.80;99.90;;;;;;5095759;28;21087;-60
2022/11/26 06:00:17;;;;;;;19.57;10.40;;;8.70;99.90;;;;;;5096013;28;20430;-61
2022/11/26 06:02:44;;;;;;;21.90;10.00;;;8.70;99.90;;;;;;5096033;28;20443;-57
2022/11/26 06:05:13;;;;;;;16.33;10.00;;;8.70;99.90;;;;;;5096099;28;20453;-59
2022/11/26 06:07:40;;;;;;;16.57;8.20;;;8.70;99.90;;;;;;5096102;28;20512;-61
2022/11/26 06:10:09;;;;;;;25.83;10.77;;;8.80;99.90;;;;;;5095796;28;20481;-62
2022/11/26 06:12:36;;;;;;;18.70;10.33;;;8.80;99.90;;;;;;5095949;28;20632;-60
2022/11/26 06:15:04;;;;;;;21.97;9.67;;;8.80;99.90;;;;;;5095756;28;20447;-57
2022/11/26 06:17:31;;;;;;;32.83;11.83;;;8.90;99.90;;;;;;5096355;28;20465;-63
2022/11/26 06:19:58;;;;;;;20.60;9.83;;;8.90;99.90;;;;;;5095085;28;20476;-61
2022/11/26 06:22:25;;;;;;;20.40;8.87;;;8.90;99.90;;;;;;5094843;28;20504;-59
2022/11/26 06:24:52;;;;;;;35.57;10.23;;;8.90;99.90;;;;;;5095742;28;20469;-61
2022/11/26 06:27:32;;;;;;;19.10;8.17;;;8.90;99.90;;;;;;5095223;28;20478;-55
2022/11/26 06:30:02;;;;;;;21.90;9.37;;;8.90;99.90;;;;;;5095267;28;20434;-56
2022/11/26 06:32:29;;;;;;;14.17;8.33;;;8.90;99.90;;;;;;5095472;28;20505;-62
2022/11/26 06:34:56;;;;;;;16.83;9.27;;;8.90;99.90;;;;;;5094957;28;20462;-62
2022/11/26 06:37:24;;;;;;;22.43;9.77;;;8.90;99.90;;;;;;5095772;28;20434;-60
2022/11/26 06:39:51;;;;;;;24.00;9.47;;;8.90;99.90;;;;;;5095454;28;20454;-59
2022/11/26 06:42:26;;;;;;;15.27;7.80;;;8.90;99.90;;;;;;5096020;28;20419;-56
2022/11/26 06:44:53;;;;;;;18.17;10.30;;;8.90;99.90;;;;;;5095589;28;20437;-61
2022/11/26 06:47:22;;;;;;;22.50;11.70;;;8.90;99.90;;;;;;5095469;28;20474;-59
2022/11/26 06:49:49;;;;;;;19.03;8.60;;;8.90;99.90;;;;;;5097156;28;20446;-61
2022/11/26 06:52:16;;;;;;;14.07;8.03;;;8.90;99.90;;;;;;5096625;28;20467;-62
2022/11/26 06:54:43;;;;;;;14.23;7.90;;;8.90;99.90;;;;;;5098154;28;20426;-55
2022/11/26 06:57:12;;;;;;;17.60;9.17;;;8.90;99.90;;;;;;5097864;28;20427;-56
2022/11/26 06:59:51;;;;;;;14.23;7.17;;;8.90;99.90;;;;;;5098783;28;20450;-54
2022/11/26 07:02:18;;;;;;;17.10;8.80;;;8.90;99.90;;;;;;5099363;28;20411;-56
2022/11/26 07:04:45;;;;;;;18.40;7.40;;;8.90;99.90;;;;;;5098891;28;20471;-60
2022/11/26 07:07:15;;;;;;;17.97;7.90;;;8.90;99.90;;;;;;5098671;28;20470;-59
2022/11/26 07:09:42;;;;;;;17.13;8.93;;;8.90;99.90;;;;;;5099091;28;20456;-59
2022/11/26 07:12:15;;;;;;;12.77;7.43;;;8.90;99.90;;;;;;5099037;28;20435;-60
2022/11/26 07:14:46;;;;;;;19.47;8.23;;;8.90;99.90;;;;;;5099055;28;20430;-56
2022/11/26 07:17:13;;;;;;;23.63;9.70;;;8.90;99.90;;;;;;5098910;28;20573;-57
2022/11/26 07:19:39;;;;;;;22.00;9.60;;;8.90;99.90;;;;;;5098096;28;20447;-61
2022/11/26 07:22:06;;;;;;;21.23;9.27;;;8.90;99.90;;;;;;5097967;28;20438;-54
2022/11/26 07:24:42;;;;;;;10.80;7.20;;;8.90;99.90;;;;;;5097097;28;20454;-59
2022/11/26 07:27:09;;;;;;;17.97;8.20;;;8.90;99.90;;;;;;5097187;28;20473;-58
2022/11/26 07:29:36;;;;;;;14.13;7.43;;;8.80;99.90;;;;;;5097137;28;20488;-59
2022/11/26 07:32:04;;;;;;;18.93;8.30;;;8.90;99.90;;;;;;5097137;28;20430;-60
2022/11/26 07:34:31;;;;;;;22.20;9.03;;;8.90;99.90;;;;;;5096184;28;20466;-59
2022/11/26 07:36:58;;;;;;;18.83;9.07;;;8.90;99.90;;;;;;5096279;28;20423;-61
2022/11/26 07:39:25;;;;;;;17.20;9.07;;;8.90;99.90;;;;;;5096411;28;20433;-59
2022/11/26 07:41:52;;;;;;;24.03;8.77;;;8.90;99.90;;;;;;5095520;28;20474;-59
2022/11/26 07:44:19;;;;;;;15.57;8.90;;;8.90;99.90;;;;;;5096020;28;20458;-55
2022/11/26 07:46:48;;;;;;;30.37;7.67;;;8.90;99.90;;;;;;5095750;28;20450;-58
2022/11/26 07:49:17;;;;;;;19.43;7.50;;;8.90;99.90;;;;;;5095843;28;20453;-59
2022/11/26 07:51:44;;;;;;;26.60;8.90;;;9.00;99.90;;;;;;5095245;28;20450;-62
2022/11/26 07:54:15;;;;;;;15.00;8.20;;;9.00;99.90;;;;;;5095557;28;20461;-61
2022/11/26 07:56:44;;;;;;;16.07;7.30;;;9.10;99.90;;;;;;5096048;28;20419;-54
2022/11/26 07:59:11;;;;;;;17.70;6.87;;;9.10;99.90;;;;;;5089695;28;20466;-63
2022/11/26 08:01:38;;;;;;;11.50;7.00;;;9.10;99.90;;;;;;5088084;28;20434;-60
2022/11/26 08:04:06;;;;;;;15.53;7.37;;;9.10;99.90;;;;;;5083531;28;20438;-64
2022/11/26 08:06:35;;;;;;;19.37;7.83;;;9.20;99.90;;;;;;5092764;28;20450;-60
2022/11/26 08:09:03;;;;;;;31.37;7.33;;;9.20;99.90;;;;;;5093640;28;20478;-62
2022/11/26 08:11:32;;;;;;;14.30;7.27;;;9.20;99.90;;;;;;5093471;28;20466;-57
2022/11/26 08:14:01;;;;;;;16.30;8.13;;;9.20;99.90;;;;;;5093586;28;20439;-55
2022/11/26 08:16:29;;;;;;;11.07;6.13;;;9.20;99.90;;;;;;5093717;28;20454;-60
2022/11/26 08:18:57;;;;;;;15.37;7.50;;;9.20;99.90;;;;;;5093398;28;20469;-60
2022/11/26 08:21:24;;;;;;;15.13;7.47;;;9.30;99.90;;;;;;5084573;28;20461;-61
2022/11/26 08:23:53;;;;;;;12.40;6.47;;;9.30;99.90;;;;;;5092415;28;20478;-65
2022/11/26 08:26:21;;;;;;;12.00;7.43;;;9.30;99.90;;;;;;5083179;28;20514;-59
2022/11/26 08:28:48;;;;;;;13.53;7.30;;;9.40;99.90;;;;;;5093884;28;20489;-52
2022/11/26 08:31:20;;;;;;;15.53;8.70;;;9.40;99.90;;;;;;5093929;28;20496;-61
2022/11/26 08:33:47;;;;;;;13.27;6.43;;;9.40;99.90;;;;;;5093814;28;20450;-62
2022/11/26 08:36:16;;;;;;;17.17;7.87;;;9.30;99.90;;;;;;5093875;28;20462;-62
2022/11/26 08:38:45;;;;;;;22.30;7.83;;;9.30;99.90;;;;;;5094300;28;20468;-57
2022/11/26 08:41:16;;;;;;;16.07;6.10;;;9.40;99.90;;;;;;5094584;28;20439;-60
2022/11/26 08:43:46;;;;;;;14.10;6.30;;;9.40;99.90;;;;;;5094191;28;20450;-61
2022/11/26 08:46:15;;;;;;;18.33;6.80;;;9.30;99.90;;;;;;5094665;28;20447;-59
2022/11/26 08:48:45;;;;;;;16.23;7.30;;;9.30;99.90;;;;;;5093846;28;20490;-54
2022/11/26 08:51:12;;;;;;;15.93;6.60;;;9.30;99.90;;;;;;5093812;28;20446;-62
2022/11/26 08:53:40;;;;;;;15.77;7.30;;;9.30;99.90;;;;;;5093298;28;20466;-59
2022/11/26 08:56:09;;;;;;;23.87;6.70;;;9.30;99.90;;;;;;5086268;28;20457;-63
2022/11/26 08:58:39;;;;;;;9.43;6.00;;;9.30;99.90;;;;;;5087544;28;20439;-61
2022/11/26 09:01:14;;;;;;;12.27;7.03;;;9.40;99.90;;;;;;5084502;28;20470;-54
2022/11/26 09:03:43;;;;;;;9.20;5.43;;;9.40;99.90;;;;;;5093944;28;20477;-60
2022/11/26 09:06:11;;;;;;;11.40;5.53;;;9.40;99.90;;;;;;5094796;28;20533;-61
2022/11/26 09:09:11;;;;;;;20.13;7.63;;;9.40;99.90;;;;;;5097052;28;20465;-60
2022/11/26 09:11:32;;;;;;;9.60;5.80;;;9.40;99.90;;;;;;5096653;28;20457;-58
2022/11/26 09:14:01;;;;;;;10.60;5.90;;;9.50;99.90;;;;;;5096634;28;20472;-60
2022/11/26 09:16:28;;;;;;;14.13;5.07;;;9.40;99.90;;;;;;5091235;28;20452;-63
2022/11/26 09:18:59;;;;;;;10.27;4.43;;;9.40;99.90;;;;;;5091581;28;20492;-57
2022/11/26 09:21:26;;;;;;;9.60;5.27;;;9.50;99.90;;;;;;5081191;28;20442;-64
2022/11/26 09:23:54;;;;;;;11.93;3.70;;;9.50;99.90;;;;;;5096838;28;21065;-58
2022/11/26 09:26:21;;;;;;;10.20;4.37;;;9.50;99.90;;;;;;5097279;28;20446;-61
2022/11/26 09:28:49;;;;;;;8.80;4.10;;;9.50;99.90;;;;;;5097082;28;20488;-64
2022/11/26 09:31:20;;;;;;;14.67;3.77;;;9.60;99.90;;;;;;5097163;28;20462;-58
2022/11/26 09:33:47;;;;;;;10.93;4.80;;;9.50;99.90;;;;;;5096660;28;20443;-60
2022/11/26 09:39:33;;;;;;;5.90;3.70;;;9.60;99.90;;;;;;5076917;28;20475;-61
2022/11/26 09:42:05;;;;;;;15.57;4.57;;;9.60;99.90;;;;;;5077472;28;20443;-61
2022/11/26 09:45:01;;;;;;;9.97;4.37;;;9.50;99.90;;;;;;5077988;28;20494;-61
2022/11/26 09:47:37;;;;;;;8.10;4.07;;;9.50;99.90;;;;;;5077186;28;20423;-61
2022/11/26 09:50:17;;;;;;;22.80;5.47;;;9.40;99.90;;;;;;5078260;28;20466;-62
2022/11/26 09:52:50;;;;;;;8.27;3.70;;;9.40;99.90;;;;;;5078051;28;20428;-61
2022/11/26 09:55:20;;;;;;;12.80;4.50;;;9.40;99.90;;;;;;5076952;28;20490;-59
2022/11/26 09:57:54;;;;;;;6.67;3.67;;;9.30;99.90;;;;;;5076586;28;20430;-60
2022/11/26 10:00:25;;;;;;;8.40;4.97;;;9.30;99.90;;;;;;5077048;28;20458;-61
2022/11/26 10:02:55;;;;;;;17.90;4.73;;;9.30;99.90;;;;;;5076891;28;20454;-61
2022/11/26 10:05:31;;;;;;;9.50;4.63;;;9.30;99.90;;;;;;5076784;28;20439;-58
2022/11/26 10:08:07;;;;;;;16.27;5.33;;;9.30;99.90;;;;;;5076547;28;20486;-63
2022/11/26 10:10:43;;;;;;;15.57;5.00;;;9.40;99.90;;;;;;5076605;28;20438;-61
2022/11/26 10:13:20;;;;;;;14.70;5.47;;;9.40;99.90;;;;;;5076783;28;20502;-60
2022/11/26 10:15:58;;;;;;;11.73;5.47;;;9.40;99.90;;;;;;5076612;28;20447;-61
2022/11/26 10:18:37;;;;;;;9.90;4.23;;;9.50;99.90;;;;;;5073649;28;20451;-55
2022/11/26 10:21:13;;;;;;;15.07;4.20;;;9.50;99.90;;;;;;5075987;28;20451;-62
2022/11/26 10:23:46;;;;;;;14.00;4.70;;;9.50;99.90;;;;;;5075915;28;20431;-58
2022/11/26 10:26:17;;;;;;;12.90;4.80;;;9.40;99.90;;;;;;5071031;28;20494;-61
2022/11/26 10:28:46;;;;;;;17.07;4.03;;;9.40;99.90;;;;;;5056131;28;20502;-63
2022/11/26 10:31:19;;;;;;;14.40;3.80;;;9.50;99.90;;;;;;5071984;28;20474;-58
2022/11/26 10:33:57;;;;;;;9.00;3.63;;;9.50;99.90;;;;;;5075640;28;20419;-56
2022/11/26 10:36:26;;;;;;;7.87;4.37;;;9.50;99.90;;;;;;5075544;28;20446;-61
2022/11/26 10:38:56;;;;;;;13.17;3.80;;;9.50;99.90;;;;;;5075231;28;20508;-61
2022/11/26 10:41:26;;;;;;;9.60;3.80;;;9.40;99.90;;;;;;5076524;28;20530;-60
2022/11/26 10:43:53;;;;;;;15.10;4.23;;;9.50;99.90;;;;;;5061219;28;20460;-60
2022/11/26 10:46:32;;;;;;;10.70;4.07;;;9.50;99.90;;;;;;5057419;28;20432;-60
2022/11/26 10:49:24;;;;;;;4.50;2.93;;;9.50;99.90;;;;;;5057577;28;20526;-62
2022/11/26 10:51:54;;;;;;;12.47;4.47;;;9.50;99.90;;;;;;5057578;28;20488;-60
2022/11/26 10:54:28;;;;;;;9.40;4.33;;;9.50;99.90;;;;;;5044127;28;20444;-57
2022/11/26 10:56:56;;;;;;;7.47;4.10;;;9.50;99.90;;;;;;5057555;28;20464;-59
2022/11/26 10:59:27;;;;;;;13.07;4.10;;;9.50;99.90;;;;;;5056958;28;20432;-59
2022/11/26 11:01:55;;;;;;;14.57;4.97;;;9.40;99.90;;;;;;5056512;28;20464;-59
2022/11/26 11:04:29;;;;;;;7.27;4.70;;;9.40;99.90;;;;;;5057006;28;20483;-61
2022/11/26 11:06:56;;;;;;;11.23;4.10;;;9.40;99.90;;;;;;5056984;28;20447;-62
2022/11/26 11:09:29;;;;;;;12.50;4.83;;;9.40;99.90;;;;;;5056397;28;20476;-60
2022/11/26 11:12:18;;;;;;;11.47;5.10;;;9.40;99.90;;;;;;5056592;28;20490;-58
2022/11/26 11:14:46;;;;;;;6.70;4.07;;;9.30;99.90;;;;;;5056638;28;20416;-60
2022/11/26 11:17:36;;;;;;;14.97;4.47;;;9.30;99.90;;;;;;5056235;28;20471;-59
2022/11/26 11:20:26;;;;;;;10.37;3.80;;;9.30;99.90;;;;;;5049579;28;20470;-62
2022/11/26 11:22:59;;;;;;;5.23;3.57;;;9.30;99.90;;;;;;5055779;28;20468;-60
2022/11/26 11:25:30;;;;;;;9.20;3.70;;;9.20;99.90;;;;;;5056137;28;20451;-58
2022/11/26 11:28:03;;;;;;;7.20;3.40;;;9.20;99.90;;;;;;5055922;28;20468;-61
2022/11/26 11:30:33;;;;;;;15.47;4.03;;;9.20;99.90;;;;;;5055978;28;20432;-62
2022/11/26 11:33:19;;;;;;;13.13;3.30;;;9.20;99.90;;;;;;5056276;28;20428;-61
2022/11/26 11:35:58;;;;;;;7.97;4.20;;;9.20;99.90;;;;;;5056063;28;20464;-62
2022/11/26 11:38:27;;;;;;;7.83;3.27;;;9.20;99.90;;;;;;5055839;28;20455;-60
2022/11/26 11:40:54;;;;;;;8.70;4.00;;;9.20;99.90;;;;;;5055699;28;20518;-60
2022/11/26 11:43:23;;;;;;;9.20;3.60;;;9.20;99.90;;;;;;5055986;28;20440;-59
2022/11/26 11:46:04;;;;;;;5.70;3.50;;;9.20;99.90;;;;;;5055539;28;20472;-61
2022/11/26 11:48:42;;;;;;;8.40;4.67;;;9.30;99.90;;;;;;5055247;28;20463;-60
2022/11/26 11:51:23;;;;;;;11.97;5.73;;;9.30;99.90;;;;;;5055844;28;20436;-60
2022/11/26 11:54:01;;;;;;;14.40;4.43;;;9.30;99.90;;;;;;5055730;28;20456;-63
2022/11/26 11:56:36;;;;;;;7.90;5.27;;;9.40;99.90;;;;;;5055567;28;20424;-61
2022/11/26 11:59:16;;;;;;;14.00;5.43;;;9.40;99.90;;;;;;5055512;28;20451;-62
2022/11/26 12:02:06;;;;;;;6.40;4.40;;;9.40;99.90;;;;;;5055723;28;20505;-58
2022/11/26 12:04:52;;;;;;;9.37;4.90;;;9.40;99.90;;;;;;5055752;28;20454;-60
2022/11/26 12:07:35;;;;;;;7.37;3.50;;;9.40;99.90;;;;;;5055768;28;20881;-61
2022/11/26 12:10:11;;;;;;;13.67;4.57;;;9.40;99.90;;;;;;5055417;28;20472;-60
2022/11/26 12:12:43;;;;;;;24.60;5.73;;;9.40;99.90;;;;;;5056095;28;20413;-62
2022/11/26 12:15:17;;;;;;;12.07;5.33;;;9.40;99.90;;;;;;5056787;28;20421;-60
2022/11/26 12:17:47;;;;;;;11.70;5.23;;;9.50;99.90;;;;;;5055654;28;20483;-62
2022/11/26 12:20:21;;;;;;;14.30;5.87;;;9.50;99.90;;;;;;5055489;28;20427;-59
2022/11/26 12:22:56;;;;;;;10.50;5.53;;;9.50;99.90;;;;;;5054660;28;20421;-62
2022/11/26 12:25:29;;;;;;;10.10;3.90;;;9.60;99.90;;;;;;5055439;28;20439;-62
2022/11/26 12:28:00;;;;;;;8.60;4.23;;;9.60;99.90;;;;;;5054830;28;20463;-62
2022/11/26 12:30:37;;;;;;;14.93;5.30;;;9.60;99.90;;;;;;5055146;28;20464;-58
2022/11/26 12:33:19;;;;;;;13.73;5.10;;;9.60;99.90;;;;;;5055496;28;20428;-60
2022/11/26 12:35:52;;;;;;;8.40;4.53;;;9.60;99.90;;;;;;5055240;28;20492;-56
2022/11/26 12:38:25;;;;;;;8.70;5.27;;;9.70;99.90;;;;;;5054788;28;20435;-60
2022/11/26 12:40:59;;;;;;;11.00;5.67;;;9.70;99.90;;;;;;5058364;28;20444;-59
2022/11/26 12:43:36;;;;;;;8.63;5.30;;;9.70;99.90;;;;;;5058855;28;20405;-57
2022/11/26 12:46:08;;;;;;;8.80;5.17;;;9.70;99.90;;;;;;5059235;28;20400;-59
2022/11/26 12:48:45;;;;;;;15.10;5.63;;;9.70;99.90;;;;;;5059249;28;20480;-60
2022/11/26 12:51:24;;;;;;;10.37;5.50;;;9.70;99.90;;;;;;5058903;28;20488;-59
2022/11/26 12:54:02;;;;;;;7.90;4.87;;;9.60;99.90;;;;;;5059328;28;20505;-59
2022/11/26 12:56:35;;;;;;;12.00;4.47;;;9.60;99.90;;;;;;5059723;28;20428;-60
2022/11/26 12:59:06;;;;;;;13.73;5.23;;;9.50;99.90;;;;;;5058943;28;20451;-60
2022/11/26 13:01:34;;;;;;;12.77;3.90;;;9.40;99.90;;;;;;5059381;28;20456;-57
2022/11/26 13:04:02;;;;;;;8.10;4.73;;;9.40;99.90;;;;;;5059191;28;20424;-58
2022/11/26 13:06:49;;;;;;;9.30;4.03;;;9.40;99.90;;;;;;5059267;28;20472;-59